createdAt,value
2023-02-24T00:00:16.205Z,6.75
2023-02-24T00:01:16.211Z,6.74
2023-02-24T00:02:16.205Z,6.74
2023-02-24T00:03:16.258Z,6.74
2023-02-24T00:04:16.196Z,6.72
2023-02-24T00:05:16.162Z,6.69
2023-02-24T00:06:16.150Z,6.69
2023-02-24T00:07:16.145Z,6.69
2023-02-24T00:08:16.121Z,6.69
2023-02-24T00:09:16.149Z,6.69
2023-02-24T00:10:16.136Z,6.72
2023-02-24T00:11:16.092Z,6.70
2023-02-24T00:12:16.110Z,6.72
2023-02-24T00:13:16.072Z,6.72
2023-02-24T00:14:16.071Z,6.72
2023-02-24T00:15:16.042Z,6.72
2023-02-24T00:16:16.131Z,6.72
2023-02-24T00:17:16.078Z,6.74
2023-02-24T00:18:16.422Z,6.72
2023-02-24T00:19:15.996Z,6.74
2023-02-24T00:20:15.996Z,6.70
2023-02-24T00:21:15.982Z,6.72
2023-02-24T00:22:15.974Z,6.70
2023-02-24T00:23:15.952Z,6.69
2023-02-24T00:24:15.995Z,6.67
2023-02-24T00:25:15.960Z,6.66
2023-02-24T00:26:15.931Z,6.66
2023-02-24T00:27:15.902Z,6.67
2023-02-24T00:28:15.895Z,6.66
2023-02-24T00:29:15.890Z,6.64
2023-02-24T00:30:15.907Z,6.62
2023-02-24T00:31:15.992Z,6.60
2023-02-24T00:32:16.004Z,6.60
2023-02-24T00:33:15.850Z,6.57
2023-02-24T00:34:15.831Z,6.54
2023-02-24T00:35:15.856Z,6.49
2023-02-24T00:36:15.815Z,6.45
2023-02-24T00:37:15.831Z,6.45
2023-02-24T00:38:15.817Z,6.46
2023-02-24T00:39:15.782Z,6.45
2023-02-24T00:40:16.284Z,6.46
2023-02-24T00:41:15.752Z,6.45
2023-02-24T00:42:15.789Z,6.41
2023-02-24T00:43:15.735Z,6.39
2023-02-24T00:44:15.752Z,6.35
2023-02-24T00:45:16.010Z,6.33
2023-02-24T00:46:15.726Z,6.33
2023-02-24T00:47:15.707Z,6.28
2023-02-24T00:48:15.697Z,6.26
2023-02-24T00:49:15.684Z,6.26
2023-02-24T00:50:16.516Z,6.26
2023-02-24T00:51:15.659Z,6.28
2023-02-24T00:52:15.679Z,6.28
2023-02-24T00:53:15.629Z,6.30
2023-02-24T00:54:15.624Z,6.30
2023-02-24T00:55:15.619Z,6.30
2023-02-24T00:56:15.630Z,6.30
2023-02-24T00:57:15.600Z,6.33
2023-02-24T00:58:15.610Z,6.31
2023-02-24T00:59:15.554Z,6.30
2023-02-24T01:00:15.571Z,6.27
2023-02-24T01:01:15.592Z,6.26
2023-02-24T01:02:15.637Z,6.27
2023-02-24T01:03:15.516Z,6.26
2023-02-24T01:04:15.575Z,6.27
2023-02-24T01:05:15.503Z,6.28
2023-02-24T01:06:15.502Z,6.24
2023-02-24T01:07:15.465Z,6.19
2023-02-24T01:08:15.550Z,6.17
2023-02-24T01:09:15.461Z,6.16
2023-02-24T01:10:15.440Z,6.14
2023-02-24T01:11:15.416Z,6.16
2023-02-24T01:12:15.530Z,6.17
2023-02-24T01:13:15.407Z,6.17
2023-02-24T01:14:15.421Z,6.17
2023-02-24T01:15:15.412Z,6.17
2023-02-24T01:16:15.396Z,6.16
2023-02-24T01:17:15.394Z,6.17
2023-02-24T01:18:15.371Z,6.16
2023-02-24T01:19:15.334Z,6.14
2023-02-24T01:20:15.369Z,6.16
2023-02-24T01:21:15.320Z,6.17
2023-02-24T01:22:15.299Z,6.19
2023-02-24T01:23:15.299Z,6.19
2023-02-24T01:24:15.284Z,6.19
2023-02-24T01:25:15.296Z,6.17
2023-02-24T01:26:15.276Z,6.16
2023-02-24T01:27:15.292Z,6.14
2023-02-24T01:28:15.245Z,6.11
2023-02-24T01:29:15.227Z,6.12
2023-02-24T01:30:15.251Z,6.12
2023-02-24T01:31:15.265Z,6.07
2023-02-24T01:32:15.477Z,6.04
2023-02-24T01:33:15.234Z,6.02
2023-02-24T01:34:15.166Z,6.01
2023-02-24T01:35:15.171Z,5.99
2023-02-24T01:36:16.019Z,5.98
2023-02-24T01:37:15.184Z,5.97
2023-02-24T01:38:15.151Z,5.94
2023-02-24T01:39:15.118Z,5.94
2023-02-24T01:40:15.114Z,5.93
2023-02-24T01:41:15.979Z,5.94
2023-02-24T01:42:15.104Z,5.93
2023-02-24T01:43:15.100Z,5.91
2023-02-24T01:44:15.065Z,5.91
2023-02-24T01:45:15.067Z,5.90
2023-02-24T01:46:15.070Z,5.90
2023-02-24T01:47:15.038Z,5.89
2023-02-24T01:48:15.069Z,5.87
2023-02-24T01:49:14.999Z,5.87
2023-02-24T01:50:15.004Z,5.89
2023-02-24T01:51:14.983Z,5.87
2023-02-24T01:52:14.970Z,5.87
2023-02-24T01:53:14.965Z,5.84
2023-02-24T01:54:14.987Z,5.84
2023-02-24T01:55:14.941Z,5.86
2023-02-24T01:56:14.947Z,5.86
2023-02-24T01:57:14.915Z,5.84
2023-02-24T01:58:14.927Z,5.82
2023-02-24T01:59:14.892Z,5.79
2023-02-24T02:00:14.903Z,5.79
2023-02-24T02:01:14.888Z,5.76
2023-02-24T02:02:15.028Z,5.76
2023-02-24T02:03:14.846Z,5.79
2023-02-24T02:04:14.853Z,5.76
2023-02-24T02:05:14.876Z,5.79
2023-02-24T02:06:14.815Z,5.76
2023-02-24T02:07:14.799Z,5.76
2023-02-24T02:08:14.852Z,5.72
2023-02-24T02:09:14.804Z,5.71
2023-02-24T02:10:14.806Z,5.71
2023-02-24T02:11:14.785Z,5.69
2023-02-24T02:12:14.754Z,5.68
2023-02-24T02:13:14.733Z,5.68
2023-02-24T02:14:14.763Z,5.68
2023-02-24T02:15:14.708Z,5.69
2023-02-24T02:16:14.748Z,5.68
2023-02-24T02:17:14.692Z,5.66
2023-02-24T02:18:14.686Z,5.62
2023-02-24T02:19:14.662Z,5.61
2023-02-24T02:20:14.694Z,5.57
2023-02-24T02:21:14.652Z,5.54
2023-02-24T02:22:14.644Z,5.54
2023-02-24T02:23:14.625Z,5.53
2023-02-24T02:24:14.615Z,5.51
2023-02-24T02:25:14.625Z,5.51
2023-02-24T02:26:14.594Z,5.53
2023-02-24T02:27:14.590Z,5.53
2023-02-24T02:28:14.591Z,5.54
2023-02-24T02:29:14.580Z,5.56
2023-02-24T02:30:14.640Z,5.54
2023-02-24T02:31:14.674Z,5.54
2023-02-24T02:32:15.369Z,5.53
2023-02-24T02:33:14.550Z,5.51
2023-02-24T02:34:14.562Z,5.50
2023-02-24T02:35:14.543Z,5.47
2023-02-24T02:36:14.580Z,5.47
2023-02-24T02:37:15.280Z,5.46
2023-02-24T02:38:14.539Z,5.48
2023-02-24T02:39:14.479Z,5.50
2023-02-24T02:40:14.529Z,5.51
2023-02-24T02:41:14.416Z,5.47
2023-02-24T02:42:14.472Z,5.47
2023-02-24T02:43:14.415Z,5.46
2023-02-24T02:44:14.416Z,5.46
2023-02-24T02:45:14.375Z,5.46
2023-02-24T02:46:14.398Z,5.46
2023-02-24T02:47:14.364Z,5.43
2023-02-24T02:48:14.405Z,5.41
2023-02-24T02:49:14.335Z,5.38
2023-02-24T02:50:14.318Z,5.39
2023-02-24T02:51:14.304Z,5.43
2023-02-24T02:52:14.367Z,5.44
2023-02-24T02:53:14.290Z,5.39
2023-02-24T02:54:14.340Z,5.39
2023-02-24T02:55:14.293Z,5.39
2023-02-24T02:56:14.294Z,5.39
2023-02-24T02:57:14.242Z,5.36
2023-02-24T02:58:14.234Z,5.33
2023-02-24T02:59:14.213Z,5.29
2023-02-24T03:00:14.259Z,5.26
2023-02-24T03:01:15.249Z,5.25
2023-02-24T03:02:14.213Z,5.26
2023-02-24T03:03:14.177Z,5.26
2023-02-24T03:04:14.190Z,5.26
2023-02-24T03:05:14.223Z,5.26
2023-02-24T03:06:15.093Z,5.26
2023-02-24T03:07:14.139Z,5.23
2023-02-24T03:08:14.159Z,5.23
2023-02-24T03:09:14.135Z,5.21
2023-02-24T03:10:14.098Z,5.21
2023-02-24T03:11:14.109Z,5.18
2023-02-24T03:12:14.125Z,5.17
2023-02-24T03:13:14.064Z,5.14
2023-02-24T03:14:14.061Z,5.11
2023-02-24T03:15:14.036Z,5.10
2023-02-24T03:16:14.059Z,5.08
2023-02-24T03:17:15.013Z,5.08
2023-02-24T03:18:14.010Z,5.10
2023-02-24T03:19:13.985Z,5.12
2023-02-24T03:20:14.006Z,5.10
2023-02-24T03:21:13.958Z,5.12
2023-02-24T03:22:14.732Z,5.11
2023-02-24T03:23:14.977Z,5.07
2023-02-24T03:24:13.954Z,5.07
2023-02-24T03:25:13.938Z,5.04
2023-02-24T03:26:14.275Z,5.04
2023-02-24T03:27:14.339Z,5.04
2023-02-24T03:28:15.862Z,5.02
2023-02-24T03:29:13.901Z,5.04
2023-02-24T03:30:14.348Z,4.99
2023-02-24T03:31:13.938Z,4.94
2023-02-24T03:32:15.377Z,4.90
2023-02-24T03:33:15.292Z,4.90
2023-02-24T03:34:13.860Z,4.89
2023-02-24T03:35:13.833Z,4.90
2023-02-24T03:36:13.821Z,4.90
2023-02-24T03:37:13.787Z,4.90
2023-02-24T03:38:13.780Z,4.92
2023-02-24T03:39:13.791Z,4.92
2023-02-24T03:40:13.772Z,4.94
2023-02-24T03:41:13.768Z,4.93
2023-02-24T03:42:13.772Z,4.93
2023-02-24T03:43:16.213Z,4.92
2023-02-24T03:44:14.670Z,4.90
2023-02-24T03:45:13.727Z,4.89
2023-02-24T03:46:13.778Z,4.89
2023-02-24T03:47:13.697Z,4.92
2023-02-24T03:48:13.681Z,4.96
2023-02-24T03:49:13.657Z,4.94
2023-02-24T03:50:13.703Z,4.97
2023-02-24T03:51:13.634Z,4.99
2023-02-24T03:52:13.652Z,5.00
2023-02-24T03:53:13.613Z,5.02
2023-02-24T03:54:14.596Z,5.05
2023-02-24T03:55:13.650Z,5.10
2023-02-24T03:56:13.606Z,5.11
2023-02-24T03:57:13.605Z,5.12
2023-02-24T03:58:15.047Z,5.14
2023-02-24T03:59:13.544Z,5.17
2023-02-24T04:00:13.674Z,5.18
2023-02-24T04:01:13.637Z,5.21
2023-02-24T04:02:13.656Z,5.25
2023-02-24T04:03:13.522Z,5.23
2023-02-24T04:04:13.498Z,5.23
2023-02-24T04:05:13.478Z,5.21
2023-02-24T04:06:13.493Z,5.18
2023-02-24T04:07:13.465Z,5.20
2023-02-24T04:08:13.626Z,5.20
2023-02-24T04:09:14.916Z,5.18
2023-02-24T04:10:13.682Z,5.17
2023-02-24T04:11:13.437Z,5.12
2023-02-24T04:12:13.791Z,5.08
2023-02-24T04:13:13.774Z,5.02
2023-02-24T04:14:13.549Z,5.05
2023-02-24T04:15:13.383Z,5.05
2023-02-24T04:16:13.475Z,5.04
2023-02-24T04:17:14.170Z,5.00
2023-02-24T04:18:13.497Z,5.04
2023-02-24T04:19:13.904Z,5.04
2023-02-24T04:20:13.349Z,5.05
2023-02-24T04:21:13.298Z,5.02
2023-02-24T04:22:13.277Z,5.04
2023-02-24T04:23:13.334Z,5.00
2023-02-24T04:24:13.276Z,4.97
2023-02-24T04:25:13.284Z,4.93
2023-02-24T04:26:14.702Z,4.93
2023-02-24T04:27:13.228Z,4.92
2023-02-24T04:28:13.281Z,4.92
2023-02-24T04:29:13.201Z,4.90
2023-02-24T04:30:13.293Z,4.89
2023-02-24T04:31:14.763Z,4.86
2023-02-24T04:32:14.776Z,4.82
2023-02-24T04:33:14.601Z,4.82
2023-02-24T04:34:13.215Z,4.86
2023-02-24T04:35:13.262Z,4.86
2023-02-24T04:36:13.140Z,4.82
2023-02-24T04:37:13.115Z,4.82
2023-02-24T04:38:13.125Z,4.84
2023-02-24T04:39:13.135Z,4.82
2023-02-24T04:40:13.144Z,4.82
2023-02-24T04:41:14.036Z,4.82
2023-02-24T04:42:13.081Z,4.82
2023-02-24T04:43:13.204Z,4.86
2023-02-24T04:44:13.043Z,4.84
2023-02-24T04:45:13.088Z,4.84
2023-02-24T04:46:13.346Z,4.84
2023-02-24T04:47:13.005Z,4.82
2023-02-24T04:48:13.055Z,4.82
2023-02-24T04:49:12.986Z,4.84
2023-02-24T04:50:12.994Z,4.87
2023-02-24T04:51:12.994Z,4.86
2023-02-24T04:52:12.949Z,4.86
2023-02-24T04:53:12.950Z,4.84
2023-02-24T04:54:12.963Z,4.80
2023-02-24T04:55:15.511Z,4.75
2023-02-24T04:56:12.900Z,4.73
2023-02-24T04:57:12.958Z,4.71
2023-02-24T04:58:12.878Z,4.70
2023-02-24T04:59:12.888Z,4.67
2023-02-24T05:00:13.878Z,4.63
2023-02-24T05:01:12.928Z,4.67
2023-02-24T05:02:12.852Z,4.66
2023-02-24T05:03:12.864Z,4.68
2023-02-24T05:04:12.942Z,4.68
2023-02-24T05:05:14.337Z,4.70
2023-02-24T05:06:12.798Z,4.74
2023-02-24T05:07:12.813Z,4.74
2023-02-24T05:08:12.831Z,4.73
2023-02-24T05:09:12.771Z,4.74
2023-02-24T05:10:12.756Z,4.75
2023-02-24T05:11:12.761Z,4.80
2023-02-24T05:12:12.733Z,4.82
2023-02-24T05:13:12.742Z,4.87
2023-02-24T05:14:12.724Z,4.89
2023-02-24T05:15:12.691Z,4.89
2023-02-24T05:16:12.724Z,4.86
2023-02-24T05:17:12.707Z,4.84
2023-02-24T05:18:12.684Z,4.86
2023-02-24T05:19:12.845Z,4.86
2023-02-24T05:20:14.101Z,4.89
2023-02-24T05:21:12.669Z,4.87
2023-02-24T05:22:12.964Z,4.84
2023-02-24T05:23:12.614Z,4.82
2023-02-24T05:24:12.614Z,4.78
2023-02-24T05:25:12.660Z,4.75
2023-02-24T05:26:12.589Z,4.75
2023-02-24T05:27:12.596Z,4.75
2023-02-24T05:28:12.575Z,4.75
2023-02-24T05:29:12.576Z,4.75
2023-02-24T05:30:12.548Z,4.78
2023-02-24T05:31:12.625Z,4.80
2023-02-24T05:32:12.617Z,4.80
2023-02-24T05:33:12.500Z,4.84
2023-02-24T05:34:12.517Z,4.87
2023-02-24T05:35:12.497Z,4.86
2023-02-24T05:36:12.478Z,4.82
2023-02-24T05:37:12.465Z,4.78
2023-02-24T05:38:12.455Z,4.82
2023-02-24T05:39:12.611Z,4.82
2023-02-24T05:40:12.469Z,4.86
2023-02-24T05:41:12.432Z,4.90
2023-02-24T05:42:12.397Z,4.93
2023-02-24T05:43:12.397Z,4.93
2023-02-24T05:44:12.391Z,4.96
2023-02-24T05:45:12.386Z,5.00
2023-02-24T05:46:12.404Z,5.02
2023-02-24T05:47:12.362Z,5.02
2023-02-24T05:48:12.481Z,5.00
2023-02-24T05:49:12.358Z,4.96
2023-02-24T05:50:12.307Z,4.93
2023-02-24T05:51:12.316Z,4.92
2023-02-24T05:52:12.316Z,4.89
2023-02-24T05:53:12.290Z,4.86
2023-02-24T05:54:12.268Z,4.84
2023-02-24T05:55:12.262Z,4.84
2023-02-24T05:56:13.762Z,4.84
2023-02-24T05:57:13.239Z,4.82
2023-02-24T05:58:12.241Z,4.80
2023-02-24T05:59:13.679Z,4.77
2023-02-24T06:00:13.667Z,4.75
2023-02-24T06:01:13.678Z,4.75
2023-02-24T06:02:12.645Z,4.74
2023-02-24T06:03:12.225Z,4.74
2023-02-24T06:04:12.169Z,4.74
2023-02-24T06:05:12.177Z,4.75
2023-02-24T06:06:12.141Z,4.75
2023-02-24T06:07:12.118Z,4.74
2023-02-24T06:08:12.147Z,4.73
2023-02-24T06:09:12.116Z,4.71
2023-02-24T06:10:12.087Z,4.70
2023-02-24T06:11:12.105Z,4.68
2023-02-24T06:12:12.101Z,4.68
2023-02-24T06:13:12.049Z,4.67
2023-02-24T06:14:13.047Z,4.66
2023-02-24T06:15:12.047Z,4.66
2023-02-24T06:16:12.036Z,4.67
2023-02-24T06:17:12.106Z,4.68
2023-02-24T06:18:11.989Z,4.68
2023-02-24T06:19:11.999Z,4.70
2023-02-24T06:20:12.017Z,4.70
2023-02-24T06:21:11.983Z,4.73
2023-02-24T06:22:11.971Z,4.74
2023-02-24T06:23:11.990Z,4.75
2023-02-24T06:24:11.941Z,4.78
2023-02-24T06:25:11.946Z,4.77
2023-02-24T06:26:11.970Z,4.77
2023-02-24T06:27:11.926Z,4.77
2023-02-24T06:28:11.890Z,4.77
2023-02-24T06:29:11.890Z,4.80
2023-02-24T06:30:11.880Z,4.82
2023-02-24T06:31:11.854Z,4.82
2023-02-24T06:32:11.991Z,4.84
2023-02-24T06:33:11.859Z,4.80
2023-02-24T06:34:11.847Z,4.78
2023-02-24T06:35:11.879Z,4.78
2023-02-24T06:36:11.817Z,4.80
2023-02-24T06:37:11.810Z,4.80
2023-02-24T06:38:11.817Z,4.82
2023-02-24T06:39:11.784Z,4.82
2023-02-24T06:40:11.780Z,4.86
2023-02-24T06:41:11.945Z,4.87
2023-02-24T06:42:11.751Z,4.90
2023-02-24T06:43:11.759Z,4.90
2023-02-24T06:44:11.728Z,4.90
2023-02-24T06:45:11.718Z,4.87
2023-02-24T06:46:11.752Z,4.87
2023-02-24T06:47:12.495Z,4.87
2023-02-24T06:48:11.695Z,4.84
2023-02-24T06:49:11.680Z,4.82
2023-02-24T06:50:11.679Z,4.80
2023-02-24T06:51:11.643Z,4.80
2023-02-24T06:52:13.179Z,4.82
2023-02-24T06:53:11.636Z,4.82
2023-02-24T06:54:11.612Z,4.82
2023-02-24T06:55:11.654Z,4.82
2023-02-24T06:56:11.604Z,4.82
2023-02-24T06:57:11.596Z,4.82
2023-02-24T06:58:11.574Z,4.80
2023-02-24T06:59:11.554Z,4.80
2023-02-24T07:00:11.544Z,4.82
2023-02-24T07:01:11.609Z,4.84
2023-02-24T07:02:11.520Z,4.84
2023-02-24T07:03:11.525Z,4.86
2023-02-24T07:04:11.509Z,4.86
2023-02-24T07:05:11.505Z,4.84
2023-02-24T07:06:11.477Z,4.84
2023-02-24T07:07:11.481Z,4.84
2023-02-24T07:08:11.449Z,4.82
2023-02-24T07:09:11.462Z,4.82
2023-02-24T07:10:11.497Z,4.84
2023-02-24T07:11:11.441Z,4.86
2023-02-24T07:12:11.421Z,4.89
2023-02-24T07:13:11.412Z,4.90
2023-02-24T07:14:11.407Z,4.90
2023-02-24T07:15:11.390Z,4.92
2023-02-24T07:16:11.506Z,4.93
2023-02-24T07:17:11.369Z,4.96
2023-02-24T07:18:11.410Z,4.96
2023-02-24T07:19:11.465Z,4.96
2023-02-24T07:20:11.322Z,4.96
2023-02-24T07:21:11.319Z,4.96
2023-02-24T07:22:11.329Z,4.97
2023-02-24T07:23:11.298Z,4.97
2023-02-24T07:24:11.319Z,5.00
2023-02-24T07:25:11.288Z,5.05
2023-02-24T07:26:11.284Z,5.05
2023-02-24T07:27:11.270Z,5.08
2023-02-24T07:28:11.256Z,5.11
2023-02-24T07:29:11.223Z,5.12
2023-02-24T07:30:11.225Z,5.17
2023-02-24T07:31:11.279Z,5.17
2023-02-24T07:32:11.308Z,5.18
2023-02-24T07:33:11.229Z,5.17
2023-02-24T07:34:11.172Z,5.17
2023-02-24T07:35:11.171Z,5.18
2023-02-24T07:36:11.152Z,5.18
2023-02-24T07:37:11.133Z,5.20
2023-02-24T07:38:13.161Z,5.20
2023-02-24T07:39:11.370Z,5.25
2023-02-24T07:40:11.108Z,5.23
2023-02-24T07:41:11.101Z,5.23
2023-02-24T07:42:11.095Z,5.25
2023-02-24T07:43:11.094Z,5.25
2023-02-24T07:44:11.082Z,5.25
2023-02-24T07:45:11.120Z,5.25
2023-02-24T07:46:11.141Z,5.25
2023-02-24T07:47:11.033Z,5.23
2023-02-24T07:48:11.012Z,5.23
2023-02-24T07:49:11.002Z,5.25
2023-02-24T07:50:10.990Z,5.26
2023-02-24T07:51:11.009Z,5.26
2023-02-24T07:52:10.967Z,5.28
2023-02-24T07:53:10.989Z,5.28
2023-02-24T07:54:10.938Z,5.29
2023-02-24T07:55:11.013Z,5.29
2023-02-24T07:56:10.954Z,5.28
2023-02-24T07:57:10.901Z,5.29
2023-02-24T07:58:10.896Z,5.29
2023-02-24T07:59:10.894Z,5.29
2023-02-24T08:00:13.111Z,5.32
2023-02-24T08:01:10.871Z,5.32
2023-02-24T08:02:11.020Z,5.32
2023-02-24T08:03:10.854Z,5.32
2023-02-24T08:04:10.838Z,5.29
2023-02-24T08:05:10.920Z,5.32
2023-02-24T08:06:11.769Z,5.29
2023-02-24T08:07:10.823Z,5.29
2023-02-24T08:08:10.784Z,5.30
2023-02-24T08:09:11.078Z,5.29
2023-02-24T08:10:10.760Z,5.30
2023-02-24T08:11:10.764Z,5.28
2023-02-24T08:12:11.022Z,5.25
2023-02-24T08:13:10.750Z,5.23
2023-02-24T08:14:10.711Z,5.20
2023-02-24T08:15:10.712Z,5.18
2023-02-24T08:16:10.753Z,5.17
2023-02-24T08:17:10.674Z,5.14
2023-02-24T08:18:10.832Z,5.12
2023-02-24T08:19:10.665Z,5.11
2023-02-24T08:20:10.647Z,5.11
2023-02-24T08:21:10.643Z,5.10
2023-02-24T08:22:10.640Z,5.08
2023-02-24T08:23:10.635Z,5.07
2023-02-24T08:24:11.455Z,5.08
2023-02-24T08:25:10.596Z,5.08
2023-02-24T08:26:10.639Z,5.10
2023-02-24T08:27:11.326Z,5.08
2023-02-24T08:28:10.555Z,5.07
2023-02-24T08:29:11.135Z,5.05
2023-02-24T08:30:10.558Z,5.04
2023-02-24T08:31:10.651Z,5.02
2023-02-24T08:32:10.664Z,5.02
2023-02-24T08:33:10.501Z,5.02
2023-02-24T08:34:10.483Z,5.04
2023-02-24T08:35:10.489Z,5.04
2023-02-24T08:36:10.505Z,5.08
2023-02-24T08:37:10.488Z,5.10
2023-02-24T08:38:10.478Z,5.12
2023-02-24T08:39:10.449Z,5.14
2023-02-24T08:40:10.436Z,5.18
2023-02-24T08:41:10.453Z,5.20
2023-02-24T08:42:10.406Z,5.23
2023-02-24T08:43:10.410Z,5.25
2023-02-24T08:44:11.322Z,5.25
2023-02-24T08:45:10.380Z,5.28
2023-02-24T08:46:11.359Z,5.25
2023-02-24T08:47:10.364Z,5.29
2023-02-24T08:48:10.359Z,5.29
2023-02-24T08:49:11.285Z,5.32
2023-02-24T08:50:10.348Z,5.32
2023-02-24T08:51:10.371Z,5.32
2023-02-24T08:52:10.300Z,5.30
2023-02-24T08:57:22.707Z,5.30
2023-02-24T08:58:22.674Z,5.30
2023-02-24T08:59:22.673Z,5.32
2023-02-24T09:00:22.696Z,5.30
2023-02-24T09:01:23.116Z,5.32
2023-02-24T09:02:22.630Z,5.33
2023-02-24T09:03:22.626Z,5.32
2023-02-24T09:04:22.702Z,5.32
2023-02-24T09:05:22.644Z,5.32
2023-02-24T09:06:22.584Z,5.35
2023-02-24T09:07:22.583Z,5.36
2023-02-24T09:08:22.584Z,5.36
2023-02-24T09:09:22.754Z,5.36
2023-02-24T09:10:22.753Z,5.36
2023-02-24T09:11:22.746Z,5.36
2023-02-24T09:12:22.507Z,5.35
2023-02-24T09:13:23.152Z,5.39
2023-02-24T09:14:27.928Z,5.38
2023-02-24T09:15:24.263Z,5.38
2023-02-24T09:16:22.490Z,5.39
2023-02-24T09:17:22.508Z,5.41
2023-02-24T09:18:22.500Z,5.41
2023-02-24T09:19:22.459Z,5.43
2023-02-24T09:20:23.259Z,5.44
2023-02-24T09:21:22.759Z,5.46
2023-02-24T09:22:22.406Z,5.48
2023-02-24T09:23:23.357Z,5.51
2023-02-24T09:24:22.386Z,5.51
2023-02-24T09:25:22.369Z,5.53
2023-02-24T09:26:22.387Z,5.51
2023-02-24T09:27:22.356Z,5.50
2023-02-24T09:28:22.389Z,5.48
2023-02-24T09:29:22.331Z,5.44
2023-02-24T09:30:23.273Z,5.43
2023-02-24T09:31:22.807Z,5.43
2023-02-24T09:32:22.425Z,5.41
2023-02-24T09:33:22.290Z,5.43
2023-02-24T09:34:22.291Z,5.44
2023-02-24T09:35:22.252Z,5.46
2023-02-24T09:36:22.273Z,5.46
2023-02-24T09:37:22.237Z,5.44
2023-02-24T09:38:22.239Z,5.41
2023-02-24T09:39:22.214Z,5.44
2023-02-24T09:40:22.203Z,5.46
2023-02-24T09:41:22.243Z,5.47
2023-02-24T09:42:22.183Z,5.48
2023-02-24T09:43:22.180Z,5.47
2023-02-24T09:44:22.167Z,5.48
2023-02-24T09:45:22.205Z,5.50
2023-02-24T09:46:22.265Z,5.50
2023-02-24T09:47:22.168Z,5.50
2023-02-24T09:48:22.128Z,5.50
2023-02-24T09:49:22.184Z,5.50
2023-02-24T09:50:46.872Z,5.50
2023-02-24T09:51:23.536Z,5.50
2023-02-24T09:52:22.075Z,5.50
2023-02-24T09:53:22.086Z,5.50
2023-02-24T09:54:22.047Z,5.48
2023-02-24T09:55:22.058Z,5.50
2023-02-24T09:56:22.175Z,5.47
2023-02-24T09:57:22.081Z,5.48
2023-02-24T09:58:24.993Z,5.50
2023-02-24T09:59:22.097Z,5.51
2023-02-24T10:00:22.053Z,5.53
2023-02-24T10:01:22.516Z,5.53
2023-02-24T10:02:22.082Z,5.51
2023-02-24T10:03:21.961Z,5.51
2023-02-24T10:04:21.995Z,5.53
2023-02-24T10:05:21.943Z,5.51
2023-02-24T10:06:21.919Z,5.53
2023-02-24T10:07:21.911Z,5.62
2023-02-24T10:08:21.894Z,5.75
2023-02-24T10:09:21.915Z,5.86
2023-02-24T10:10:21.949Z,5.84
2023-02-24T10:11:22.239Z,5.80
2023-02-24T10:12:22.053Z,5.75
2023-02-24T10:13:22.199Z,5.71
2023-02-24T10:14:23.104Z,5.69
2023-02-24T10:15:21.822Z,5.66
2023-02-24T10:16:21.869Z,5.64
2023-02-24T10:17:22.741Z,5.61
2023-02-24T10:18:21.814Z,5.57
2023-02-24T10:19:21.796Z,5.59
2023-02-24T10:20:21.764Z,5.56
2023-02-24T10:21:22.347Z,5.56
2023-02-24T10:22:23.186Z,5.54
2023-02-24T10:23:21.789Z,5.56
2023-02-24T10:24:21.740Z,5.57
2023-02-24T10:25:22.753Z,5.57
2023-02-24T10:26:21.714Z,5.59
2023-02-24T10:27:21.699Z,5.57
2023-02-24T10:28:23.186Z,5.61
2023-02-24T10:29:21.706Z,5.57
2023-02-24T10:30:21.745Z,5.59
2023-02-24T10:31:22.680Z,5.56
2023-02-24T10:32:21.788Z,5.57
2023-02-24T10:33:21.648Z,5.56
2023-02-24T10:34:23.972Z,5.57
2023-02-24T10:35:21.823Z,5.56
2023-02-24T10:36:23.059Z,5.57
2023-02-24T10:37:28.074Z,5.59
2023-02-24T10:38:22.557Z,5.59
2023-02-24T10:39:21.564Z,5.61
2023-02-24T10:40:21.561Z,5.61
2023-02-24T10:41:21.813Z,5.59
2023-02-24T10:42:21.619Z,5.61
2023-02-24T10:43:22.234Z,5.57
2023-02-24T10:44:21.500Z,5.59
2023-02-24T10:45:23.120Z,5.59
2023-02-24T10:46:26.440Z,5.57
2023-02-24T10:47:22.473Z,5.56
2023-02-24T10:48:24.528Z,5.57
2023-02-24T10:49:22.473Z,5.57
2023-02-24T10:50:21.941Z,5.59
2023-02-24T10:51:21.887Z,5.57
2023-02-24T10:52:21.400Z,5.59
2023-02-24T10:53:21.443Z,5.61
2023-02-24T10:54:21.414Z,5.62
2023-02-24T10:55:21.390Z,5.61
2023-02-24T10:56:21.735Z,5.59
2023-02-24T10:57:21.420Z,5.57
2023-02-24T10:58:21.404Z,5.56
2023-02-24T10:59:21.373Z,5.54
2023-02-24T11:00:21.482Z,5.53
2023-02-24T11:01:23.255Z,5.53
2023-02-24T11:02:21.313Z,5.51
2023-02-24T11:03:32.566Z,5.50
2023-02-24T11:04:22.275Z,5.44
2023-02-24T11:05:21.277Z,5.44
2023-02-24T11:06:21.843Z,5.43
2023-02-24T11:07:22.706Z,5.41
2023-02-24T11:08:21.271Z,5.35
2023-02-24T11:09:22.713Z,5.29
2023-02-24T11:10:21.241Z,5.21
2023-02-24T11:11:21.473Z,5.20
2023-02-24T11:12:21.354Z,5.14
2023-02-24T11:13:21.186Z,5.12
2023-02-24T11:14:23.229Z,5.11
2023-02-24T11:15:21.204Z,5.08
2023-02-24T11:16:21.201Z,5.05
2023-02-24T11:17:23.306Z,5.04
2023-02-24T11:18:21.144Z,5.00
2023-02-24T11:19:21.224Z,4.99
2023-02-24T11:20:21.152Z,4.99
2023-02-24T11:21:22.844Z,4.99
2023-02-24T11:22:21.080Z,4.99
2023-02-24T11:23:21.074Z,4.96
2023-02-24T11:24:21.073Z,4.94
2023-02-24T11:25:21.048Z,4.92
2023-02-24T11:26:27.422Z,4.90
2023-02-24T11:27:21.031Z,4.87
2023-02-24T11:28:21.024Z,4.82
2023-02-24T11:29:20.989Z,4.80
2023-02-24T11:30:20.982Z,4.80
2023-02-24T11:31:22.174Z,4.80
2023-02-24T11:32:21.049Z,4.82
2023-02-24T11:33:20.972Z,4.80
2023-02-24T11:34:20.957Z,4.82
2023-02-24T11:35:20.984Z,4.84
2023-02-24T11:36:20.964Z,4.84
2023-02-24T11:37:20.956Z,4.84
2023-02-24T11:38:21.065Z,4.80
2023-02-24T11:39:21.762Z,4.78
2023-02-24T11:40:20.880Z,4.80
2023-02-24T11:41:21.275Z,4.78
2023-02-24T11:42:20.982Z,4.77
2023-02-24T11:43:20.883Z,4.74
2023-02-24T11:44:21.148Z,4.71
2023-02-24T11:45:20.819Z,4.70
2023-02-24T11:46:21.119Z,4.66
2023-02-24T11:47:20.980Z,4.63
2023-02-24T11:48:20.826Z,4.62
2023-02-24T11:49:20.775Z,4.60
2023-02-24T11:50:20.762Z,4.59
2023-02-24T11:51:22.495Z,4.60
2023-02-24T11:52:20.767Z,4.59
2023-02-24T11:53:20.799Z,4.59
2023-02-24T11:54:20.742Z,4.59
2023-02-24T11:55:20.852Z,4.58
2023-02-24T11:56:22.682Z,4.59
2023-02-24T11:57:20.694Z,4.59
2023-02-24T11:58:20.691Z,4.59
2023-02-24T11:59:21.247Z,4.59
2023-02-24T12:00:20.677Z,4.59
2023-02-24T12:01:21.756Z,4.59
2023-02-24T12:02:21.113Z,4.58
2023-02-24T12:03:20.749Z,4.60
2023-02-24T12:04:21.085Z,4.60
2023-02-24T12:05:21.177Z,4.63
2023-02-24T12:06:20.648Z,4.62
2023-02-24T12:07:20.585Z,4.62
2023-02-24T12:08:21.294Z,4.62
2023-02-24T12:09:20.637Z,4.62
2023-02-24T12:10:21.157Z,4.63
2023-02-24T12:11:21.150Z,4.62
2023-02-24T12:12:21.138Z,4.62
2023-02-24T12:13:21.090Z,4.62
2023-02-24T12:14:21.295Z,4.62
2023-02-24T12:15:21.064Z,4.66
2023-02-24T12:16:21.088Z,4.67
2023-02-24T12:17:21.261Z,4.70
2023-02-24T12:18:21.015Z,4.74
2023-02-24T12:19:21.010Z,4.74
2023-02-24T12:20:21.143Z,4.74
2023-02-24T12:21:20.676Z,4.75
2023-02-24T12:22:20.422Z,4.74
2023-02-24T12:23:20.426Z,4.71
2023-02-24T12:24:20.474Z,4.70
2023-02-24T12:25:20.380Z,4.70
2023-02-24T12:26:20.407Z,4.71
2023-02-24T12:27:21.855Z,4.70
2023-02-24T12:28:20.718Z,4.68
2023-02-24T12:29:20.353Z,4.67
2023-02-24T12:30:20.363Z,4.67
2023-02-24T12:31:21.041Z,4.68
2023-02-24T12:32:20.475Z,4.68
2023-02-24T12:33:20.320Z,4.68
2023-02-24T12:34:20.286Z,4.62
2023-02-24T12:35:20.277Z,4.59
2023-02-24T12:36:20.255Z,4.59
2023-02-24T12:37:20.278Z,4.59
2023-02-24T12:38:20.245Z,4.60
2023-02-24T12:39:20.227Z,4.63
2023-02-24T12:40:20.227Z,4.62
2023-02-24T12:41:20.549Z,4.63
2023-02-24T12:42:21.688Z,4.60
2023-02-24T12:43:20.214Z,4.62
2023-02-24T12:44:20.192Z,4.74
2023-02-24T12:45:20.159Z,4.90
2023-02-24T12:46:20.194Z,4.93
2023-02-24T12:47:21.226Z,4.92
2023-02-24T12:48:20.124Z,4.89
2023-02-24T12:49:20.154Z,4.84
2023-02-24T12:50:20.118Z,4.78
2023-02-24T12:51:20.585Z,4.73
2023-02-24T12:52:20.106Z,4.73
2023-02-24T12:53:20.045Z,4.70
2023-02-24T12:54:20.058Z,4.67
2023-02-24T12:55:20.075Z,4.67
2023-02-24T12:56:20.034Z,4.67
2023-02-24T12:57:20.035Z,4.67
2023-02-24T12:58:20.025Z,4.66
2023-02-24T12:59:20.016Z,4.63
2023-02-24T13:00:19.976Z,4.63
2023-02-24T13:01:20.415Z,4.66
2023-02-24T13:02:20.047Z,4.66
2023-02-24T13:03:20.120Z,4.68
2023-02-24T13:04:20.073Z,4.68
2023-02-24T13:05:20.060Z,4.67
2023-02-24T13:06:20.915Z,4.67
2023-02-24T13:07:20.847Z,4.68
2023-02-24T13:08:19.931Z,4.67
2023-02-24T13:09:19.994Z,4.71
2023-02-24T13:10:19.877Z,4.71
2023-02-24T13:11:20.302Z,4.71
2023-02-24T13:12:19.891Z,4.71
2023-02-24T13:13:19.841Z,4.71
2023-02-24T13:14:19.930Z,4.73
2023-02-24T13:15:20.409Z,4.73
2023-02-24T13:16:20.814Z,4.73
2023-02-24T13:17:19.932Z,4.73
2023-02-24T13:18:19.833Z,4.73
2023-02-24T13:19:19.766Z,4.74
2023-02-24T13:20:19.788Z,4.74
2023-02-24T13:21:20.163Z,4.74
2023-02-24T13:22:19.764Z,4.75